createdAt,value
2019-01-21T00:00:45.893Z,13.68
2019-01-21T00:03:15.891Z,12.37
2019-01-21T00:05:50.145Z,14.65
2019-01-21T00:08:24.816Z,15.28
2019-01-21T00:10:56.548Z,10.48
2019-01-21T00:13:29.264Z,14.18
2019-01-21T00:15:58.961Z,9.90
2019-01-21T00:18:28.929Z,17.42
2019-01-21T00:21:02.900Z,13.43
2019-01-21T00:23:34.552Z,12.63
2019-01-21T00:26:05.328Z,17.40
2019-01-21T00:28:36.016Z,13.18
2019-01-21T00:31:06.729Z,11.70
2019-01-21T00:33:36.703Z,12.80
2019-01-21T00:36:06.549Z,15.18
2019-01-21T00:38:36.261Z,15.78
2019-01-21T00:41:06.221Z,27.82
2019-01-21T00:43:44.254Z,12.82
2019-01-21T00:46:14.979Z,16.15
2019-01-21T00:48:46.669Z,15.93
2019-01-21T00:51:17.337Z,13.05
2019-01-21T00:53:47.937Z,15.98
2019-01-21T00:56:22.495Z,12.00
2019-01-21T00:58:58.441Z,16.37
2019-01-21T01:01:29.505Z,14.35
2019-01-21T01:04:00.602Z,21.68
2019-01-21T01:06:32.714Z,22.62
2019-01-21T01:09:03.061Z,16.48
2019-01-21T01:11:34.106Z,15.85
2019-01-21T01:14:04.277Z,22.17
2019-01-21T01:16:36.375Z,17.92
2019-01-21T01:19:07.176Z,14.03
2019-01-21T01:21:43.651Z,18.87
2019-01-21T01:24:16.297Z,16.87
2019-01-21T01:26:51.502Z,14.90
2019-01-21T01:29:22.509Z,12.00
2019-01-21T01:31:52.361Z,15.93
2019-01-21T01:34:22.333Z,14.05
2019-01-21T01:36:52.434Z,11.50
2019-01-21T01:39:23.537Z,12.30
2019-01-21T01:41:53.646Z,10.70
2019-01-21T01:44:30.200Z,12.13
2019-01-21T01:47:01.134Z,23.62
2019-01-21T01:49:32.186Z,9.80
2019-01-21T01:52:08.306Z,13.30
2019-01-21T01:54:44.640Z,16.55
2019-01-21T01:57:15.626Z,18.57
2019-01-21T01:59:46.670Z,17.75
2019-01-21T02:02:16.798Z,21.90
2019-01-21T02:04:47.588Z,11.83
2019-01-21T02:07:18.637Z,16.50
2019-01-21T02:09:54.524Z,17.27
2019-01-21T02:12:28.649Z,10.78
2019-01-21T02:14:58.493Z,15.85
2019-01-21T02:17:35.222Z,23.95
2019-01-21T02:20:09.444Z,12.35
2019-01-21T02:22:43.858Z,20.80
2019-01-21T02:25:15.486Z,13.75
2019-01-21T02:28:05.438Z,26.48
2019-01-21T02:30:49.142Z,18.00
2019-01-21T02:33:24.837Z,11.85
2019-01-21T02:36:11.587Z,13.35
2019-01-21T02:38:50.141Z,15.10
2019-01-21T02:41:24.092Z,14.20
2019-01-21T02:44:04.246Z,12.25
2019-01-21T02:46:53.866Z,14.10
2019-01-21T02:49:57.917Z,19.05
2019-01-21T02:52:50.989Z,11.73
2019-01-21T02:55:47.695Z,11.05
2019-01-21T02:58:29.301Z,8.95
2019-01-21T03:01:28.009Z,9.90
2019-01-21T03:04:23.244Z,12.43
2019-01-21T03:07:29.751Z,13.93
2019-01-21T03:10:14.484Z,9.03
2019-01-21T03:13:05.621Z,18.35
2019-01-21T03:15:55.289Z,15.72
2019-01-21T03:18:30.501Z,11.10
2019-01-21T03:21:26.082Z,14.53
2019-01-21T03:24:07.713Z,26.62
2019-01-21T03:27:01.802Z,11.90
2019-01-21T03:29:57.331Z,11.65
2019-01-21T03:32:45.114Z,19.65
2019-01-21T03:35:25.435Z,9.88
2019-01-21T03:38:23.621Z,12.95
2019-01-21T03:41:05.416Z,14.43
2019-01-21T03:44:07.099Z,31.52
2019-01-21T03:47:19.373Z,9.63
2019-01-21T03:50:11.611Z,9.98
2019-01-21T03:53:05.528Z,7.35
2019-01-21T03:55:37.477Z,17.23
2019-01-21T03:58:40.157Z,8.85
2019-01-21T04:01:50.405Z,11.35
2019-01-21T04:04:47.682Z,12.40
2019-01-21T04:07:30.717Z,14.30
2019-01-21T04:10:32.082Z,10.03
2019-01-21T04:13:13.825Z,18.57
2019-01-21T04:15:53.133Z,10.40
2019-01-21T04:18:57.965Z,11.05
2019-01-21T04:25:17.127Z,14.95
2019-01-21T04:28:04.731Z,11.25
2019-01-21T04:30:57.031Z,13.38
2019-01-21T04:33:54.305Z,13.30
2019-01-21T04:36:32.626Z,5.03
2019-01-21T04:39:33.627Z,11.63
2019-01-21T04:42:09.383Z,22.13
2019-01-21T04:45:08.383Z,16.12
2019-01-21T04:48:12.421Z,9.70
2019-01-21T04:51:18.945Z,20.30
2019-01-21T04:54:12.685Z,16.05
2019-01-21T04:57:08.070Z,11.93
2019-01-21T05:04:28.057Z,11.20
2019-01-21T05:07:16.017Z,16.02
2019-01-21T05:10:17.193Z,48.90
2019-01-21T05:13:26.857Z,9.63
2019-01-21T05:16:11.093Z,12.82
2019-01-21T05:19:09.107Z,13.32
2019-01-21T05:21:57.918Z,14.45
2019-01-21T05:24:41.685Z,12.10
2019-01-21T05:27:49.577Z,10.45
2019-01-21T05:30:41.933Z,17.98
2019-01-21T05:33:42.669Z,12.93
2019-01-21T05:36:35.581Z,18.90
2019-01-21T05:39:22.421Z,13.08
2019-01-21T05:42:20.706Z,19.98
2019-01-21T05:45:17.809Z,15.43
2019-01-21T05:48:10.126Z,10.20
2019-01-21T05:51:17.229Z,12.50
2019-01-21T05:54:06.719Z,19.82
2019-01-21T05:57:16.870Z,12.68
2019-01-21T06:00:09.031Z,20.02
2019-01-21T06:03:02.119Z,9.80
2019-01-21T06:06:20.738Z,22.73
2019-01-21T06:09:22.113Z,18.67
2019-01-21T06:12:09.975Z,11.78
2019-01-21T06:15:20.634Z,12.78
2019-01-21T06:18:29.261Z,10.45
2019-01-21T06:21:17.217Z,9.08
2019-01-21T06:24:29.650Z,14.40
2019-01-21T06:27:32.585Z,17.67
2019-01-21T06:30:17.449Z,8.00
2019-01-21T06:33:22.405Z,11.73
2019-01-21T06:36:00.799Z,6.53
2019-01-21T06:38:36.349Z,14.58
2019-01-21T06:41:16.033Z,12.18
2019-01-21T06:43:52.521Z,16.10
2019-01-21T06:46:37.593Z,14.38
2019-01-21T06:49:28.597Z,14.25
2019-01-21T06:52:22.637Z,11.95
2019-01-21T06:55:31.857Z,10.80
2019-01-21T06:58:10.521Z,11.45
2019-01-21T07:01:01.502Z,11.28
2019-01-21T07:03:54.197Z,14.90
2019-01-21T07:06:43.501Z,14.13
2019-01-21T07:09:23.125Z,32.73
2019-01-21T07:12:00.773Z,17.82
2019-01-21T07:14:53.785Z,14.98
2019-01-21T07:18:15.605Z,12.98
2019-01-21T07:20:55.661Z,11.00
2019-01-21T07:23:40.343Z,15.85
2019-01-21T07:26:42.019Z,11.35
2019-01-21T07:29:33.395Z,15.88
2019-01-21T07:32:20.057Z,16.87
2019-01-21T07:35:02.921Z,12.70
2019-01-21T07:37:45.441Z,7.15
2019-01-21T07:40:37.985Z,15.08
2019-01-21T07:43:18.673Z,14.68
2019-01-21T07:46:21.632Z,15.68
2019-01-21T07:49:17.629Z,15.13
2019-01-21T07:52:36.885Z,14.73
2019-01-21T07:55:30.341Z,9.90
2019-01-21T07:58:15.565Z,14.95
2019-01-21T08:01:03.088Z,10.48
2019-01-21T08:04:08.718Z,22.70
2019-01-21T08:06:46.343Z,9.63
2019-01-21T08:09:32.693Z,21.23
2019-01-21T08:12:11.367Z,24.75
2019-01-21T08:15:11.149Z,13.98
2019-01-21T08:18:00.447Z,19.15
2019-01-21T08:20:44.985Z,22.35
2019-01-21T08:23:42.113Z,16.80
2019-01-21T08:26:25.223Z,23.22
2019-01-21T08:29:01.973Z,19.48
2019-01-21T08:31:46.513Z,19.77
2019-01-21T08:34:58.884Z,15.83
2019-01-21T08:37:44.930Z,22.22
2019-01-21T08:40:40.618Z,22.67
2019-01-21T08:43:27.449Z,34.50
2019-01-21T08:46:21.478Z,25.90
2019-01-21T08:49:06.357Z,28.12
2019-01-21T08:51:50.171Z,23.87
2019-01-21T08:54:39.308Z,24.02
2019-01-21T08:57:35.721Z,22.45
2019-01-21T09:00:14.104Z,24.95
2019-01-21T09:02:49.581Z,28.85
2019-01-21T09:05:39.193Z,24.27
2019-01-21T09:08:20.605Z,29.75
2019-01-21T09:11:06.950Z,31.37
2019-01-21T09:13:42.496Z,19.62
2019-01-21T09:16:20.994Z,30.25
2019-01-21T09:18:53.773Z,35.45
2019-01-21T09:21:51.417Z,28.23
2019-01-21T09:24:45.062Z,29.45
2019-01-21T09:27:20.541Z,28.47
2019-01-21T09:30:28.293Z,35.40
2019-01-21T09:33:21.115Z,28.20
2019-01-21T09:35:58.474Z,37.23
2019-01-21T09:38:49.042Z,24.20
2019-01-21T09:41:47.982Z,30.27
2019-01-21T09:44:37.897Z,24.47
2019-01-21T09:47:06.366Z,29.72
2019-01-21T09:49:34.839Z,33.63
2019-01-21T09:52:06.133Z,35.28
2019-01-21T09:54:39.177Z,27.93
2019-01-21T09:57:09.153Z,31.10
2019-01-21T09:59:39.187Z,28.07
2019-01-21T10:02:09.369Z,28.38
2019-01-21T10:04:41.870Z,29.87
2019-01-21T10:07:20.373Z,34.15
2019-01-21T10:10:08.120Z,26.70
2019-01-21T10:12:52.530Z,24.43
2019-01-21T10:15:39.092Z,16.23
2019-01-21T10:18:16.329Z,25.80
2019-01-21T10:21:00.969Z,25.57
2019-01-21T10:23:34.685Z,25.68
2019-01-21T10:26:27.469Z,27.55
2019-01-21T10:29:17.548Z,28.47
2019-01-21T10:32:08.887Z,50.92
2019-01-21T10:34:42.545Z,31.37
2019-01-21T10:37:41.118Z,30.97
2019-01-21T10:40:21.466Z,30.12
2019-01-21T10:43:16.246Z,34.08
2019-01-21T10:46:00.817Z,32.80
2019-01-21T10:49:07.468Z,28.40
2019-01-21T10:52:04.665Z,25.75
2019-01-21T10:55:01.893Z,27.65
2019-01-21T10:57:50.718Z,26.55
2019-01-21T11:00:50.783Z,23.52
2019-01-21T11:03:38.788Z,30.15
2019-01-21T11:06:38.923Z,23.83
2019-01-21T11:09:17.588Z,27.10
2019-01-21T11:12:31.372Z,20.10
2019-01-21T11:15:14.649Z,24.98
2019-01-21T11:17:58.629Z,27.42
2019-01-21T11:20:58.633Z,18.95
2019-01-21T11:23:37.152Z,16.20
2019-01-21T11:26:32.150Z,24.75
2019-01-21T11:29:26.298Z,20.57
2019-01-21T11:32:14.433Z,21.77
2019-01-21T11:35:03.758Z,14.80
2019-01-21T11:37:58.274Z,20.30
2019-01-21T11:40:49.778Z,22.70
2019-01-21T11:43:36.361Z,21.70
2019-01-21T11:46:16.376Z,23.93
2019-01-21T11:49:07.907Z,28.87
2019-01-21T11:51:48.698Z,21.63
2019-01-21T11:54:49.087Z,17.17
2019-01-21T11:57:31.749Z,15.23
2019-01-21T12:00:18.714Z,29.23
2019-01-21T12:03:00.458Z,17.03
2019-01-21T12:05:34.202Z,16.27
2019-01-21T12:08:26.058Z,17.60
2019-01-21T12:11:22.843Z,20.67
2019-01-21T12:14:12.470Z,20.47
2019-01-21T12:17:10.939Z,19.73
2019-01-21T12:20:03.515Z,17.40
2019-01-21T12:23:04.863Z,17.73
2019-01-21T12:25:54.050Z,15.70
2019-01-21T12:28:45.788Z,13.20
2019-01-21T12:31:24.266Z,17.37
2019-01-21T12:34:07.785Z,15.60
2019-01-21T12:36:46.413Z,21.30
2019-01-21T12:39:36.499Z,23.30
2019-01-21T12:42:11.409Z,17.23
2019-01-21T12:45:08.413Z,22.33
2019-01-21T12:47:44.043Z,16.73
2019-01-21T12:50:47.258Z,22.97
2019-01-21T12:53:48.017Z,15.30
2019-01-21T12:57:00.862Z,15.50
2019-01-21T13:00:09.881Z,24.37
2019-01-21T13:03:16.261Z,17.63
2019-01-21T13:06:19.098Z,16.00
2019-01-21T13:09:14.309Z,16.67
2019-01-21T13:11:50.646Z,20.67
2019-01-21T13:14:39.992Z,17.77
2019-01-21T13:17:12.750Z,19.37
2019-01-21T13:20:18.633Z,14.37
2019-01-21T13:23:01.694Z,21.83
2019-01-21T13:25:47.601Z,19.77
2019-01-21T13:28:27.138Z,17.27
2019-01-21T13:31:20.387Z,17.10
2019-01-21T13:33:57.014Z,28.60
2019-01-21T13:37:04.184Z,19.90
2019-01-21T13:40:11.926Z,24.50
2019-01-21T13:42:47.398Z,16.93
2019-01-21T13:46:09.246Z,16.63
2019-01-21T13:48:57.025Z,17.83
2019-01-21T13:51:41.327Z,17.53
2019-01-21T13:54:30.786Z,19.87
2019-01-21T13:57:18.133Z,24.63
2019-01-21T14:00:02.534Z,16.87
2019-01-21T14:02:40.977Z,14.00
2019-01-21T14:05:20.881Z,14.03
2019-01-21T14:08:16.419Z,16.73
2019-01-21T14:10:58.474Z,17.93
2019-01-21T14:13:39.725Z,15.47
2019-01-21T14:16:26.970Z,17.60
2019-01-21T14:19:31.473Z,17.90
2019-01-21T14:22:40.930Z,18.97
2019-01-21T14:25:22.614Z,17.17
2019-01-21T14:28:30.538Z,13.08
2019-01-21T14:31:30.706Z,15.08
2019-01-21T14:34:18.980Z,16.55
2019-01-21T14:37:02.118Z,19.37
2019-01-21T14:39:42.843Z,21.15
2019-01-21T14:42:38.283Z,27.95
2019-01-21T14:45:20.459Z,19.42
2019-01-21T14:48:16.858Z,27.58
2019-01-21T14:51:10.942Z,24.57
2019-01-21T14:54:01.735Z,15.50
2019-01-21T14:57:24.060Z,19.95
2019-01-21T15:00:00.310Z,15.53
2019-01-21T15:02:52.066Z,15.85
2019-01-21T15:06:01.545Z,22.60
2019-01-21T15:08:39.062Z,17.42
2019-01-21T15:11:45.804Z,19.77
2019-01-21T15:14:38.274Z,20.05
2019-01-21T15:17:44.768Z,13.32
2019-01-21T15:20:17.647Z,22.00
2019-01-21T15:22:52.389Z,18.37
2019-01-21T15:25:33.916Z,12.63
2019-01-21T15:28:45.303Z,15.18
2019-01-21T15:31:36.054Z,14.80
2019-01-21T15:34:11.668Z,24.15
2019-01-21T15:36:53.370Z,14.15
2019-01-21T15:39:33.953Z,12.85
2019-01-21T15:42:14.092Z,16.52
2019-01-21T15:44:49.738Z,12.75
2019-01-21T15:47:47.778Z,17.37
2019-01-21T15:50:27.570Z,17.57
2019-01-21T15:53:20.119Z,16.85
2019-01-21T15:56:01.730Z,19.12
2019-01-21T15:58:43.635Z,17.50
2019-01-21T16:01:31.381Z,17.32
2019-01-21T16:04:06.159Z,15.50
2019-01-21T16:06:55.004Z,12.90
2019-01-21T16:09:53.745Z,13.72
2019-01-21T16:12:32.950Z,13.80
2019-01-21T16:15:39.599Z,12.28
2019-01-21T16:18:26.758Z,18.90
2019-01-21T16:21:34.526Z,30.90
2019-01-21T16:24:29.926Z,17.92
2019-01-21T16:27:33.060Z,19.23
2019-01-21T16:30:27.684Z,19.07
2019-01-21T16:33:18.608Z,20.25
2019-01-21T16:35:57.054Z,21.40
2019-01-21T16:38:29.126Z,21.73
2019-01-21T16:41:25.642Z,18.75
2019-01-21T16:43:55.771Z,22.98
2019-01-21T16:46:27.760Z,19.35
2019-01-21T16:48:57.858Z,18.45
2019-01-21T16:51:28.948Z,16.10
2019-01-21T16:53:59.181Z,17.40
2019-01-21T16:56:34.862Z,21.90
2019-01-21T16:59:05.076Z,32.38
2019-01-21T17:01:37.099Z,21.75
2019-01-21T17:04:09.156Z,20.23
2019-01-21T17:06:39.956Z,19.25
2019-01-21T17:09:11.281Z,21.70
2019-01-21T17:11:42.042Z,22.60
2019-01-21T17:14:12.066Z,15.80
2019-01-21T17:16:43.136Z,17.50
2019-01-21T17:19:12.959Z,19.50
2019-01-21T17:21:43.531Z,21.07
2019-01-21T17:24:19.291Z,25.68
2019-01-21T17:26:49.021Z,21.33
2019-01-21T17:29:19.980Z,45.38
2019-01-21T17:31:51.011Z,32.88
2019-01-21T17:34:21.738Z,30.88
2019-01-21T17:36:51.723Z,24.50
2019-01-21T17:39:21.820Z,34.20
2019-01-21T17:41:51.919Z,35.70
2019-01-21T17:44:24.967Z,29.18
2019-01-21T17:46:56.596Z,34.67
2019-01-21T17:49:28.623Z,36.28
2019-01-21T17:52:03.379Z,35.65
2019-01-21T17:54:35.249Z,41.18
2019-01-21T17:57:06.652Z,34.05
2019-01-21T17:59:37.679Z,36.38
2019-01-21T18:02:07.856Z,32.60
2019-01-21T18:04:37.956Z,33.63
2019-01-21T18:07:07.791Z,37.40
2019-01-21T18:09:38.432Z,33.48
2019-01-21T18:12:08.126Z,37.28
2019-01-21T18:14:38.767Z,33.83
2019-01-21T18:17:15.132Z,49.40
2019-01-21T18:19:50.822Z,120.05
2019-01-21T18:22:20.921Z,34.75
2019-01-21T18:24:51.691Z,38.92
2019-01-21T18:27:21.392Z,42.33
2019-01-21T18:29:51.365Z,35.92
2019-01-21T18:32:24.491Z,38.92
2019-01-21T18:34:56.554Z,37.95
2019-01-21T18:37:27.520Z,28.85
2019-01-21T18:39:58.834Z,31.05
2019-01-21T18:42:32.574Z,24.98
2019-01-21T18:45:07.007Z,21.42
2019-01-21T18:47:37.169Z,28.07
2019-01-21T18:50:09.884Z,26.62
2019-01-21T18:52:41.831Z,24.18
2019-01-21T18:55:11.639Z,26.97
2019-01-21T18:57:44.427Z,25.62
2019-01-21T19:00:20.655Z,25.60
2019-01-21T19:02:50.446Z,35.52
2019-01-21T19:05:20.494Z,24.02
2019-01-21T19:07:50.194Z,37.90
2019-01-21T19:10:19.883Z,36.93
2019-01-21T19:12:51.859Z,40.00
2019-01-21T19:15:31.222Z,34.67
2019-01-21T19:18:03.395Z,41.68
2019-01-21T19:20:33.496Z,30.37
2019-01-21T19:23:03.663Z,33.42
2019-01-21T19:25:37.242Z,33.15
2019-01-21T19:28:08.267Z,35.80
2019-01-21T19:30:38.385Z,29.98
2019-01-21T19:33:09.135Z,36.35
2019-01-21T19:35:39.766Z,32.10
2019-01-21T19:38:09.872Z,26.68
2019-01-21T19:40:39.731Z,32.63
2019-01-21T19:43:10.704Z,29.42
2019-01-21T19:45:40.824Z,36.45
2019-01-21T19:48:11.804Z,23.85
2019-01-21T19:50:41.639Z,28.62
2019-01-21T19:53:11.611Z,30.90
2019-01-21T19:55:42.827Z,26.23
2019-01-21T19:58:14.279Z,31.62
2019-01-21T20:00:44.682Z,25.85
2019-01-21T20:03:14.374Z,28.92
2019-01-21T20:05:44.386Z,30.30
2019-01-21T20:08:16.423Z,24.47
2019-01-21T20:10:46.294Z,22.58
2019-01-21T20:13:15.959Z,25.02
2019-01-21T20:15:45.927Z,24.92
2019-01-21T20:18:15.755Z,17.10
2019-01-21T20:20:45.813Z,22.50
2019-01-21T20:23:15.642Z,36.30
2019-01-21T20:25:45.327Z,24.37
2019-01-21T20:28:15.439Z,19.77
2019-01-21T20:30:45.842Z,19.50
2019-01-21T20:33:15.731Z,22.55
2019-01-21T20:35:45.695Z,30.35
2019-01-21T20:38:15.531Z,20.55
2019-01-21T20:40:47.254Z,30.60
2019-01-21T20:43:17.276Z,27.17
2019-01-21T20:45:51.116Z,21.82
2019-01-21T20:48:21.855Z,28.00
2019-01-21T20:50:51.842Z,21.00
2019-01-21T20:53:21.959Z,28.07
2019-01-21T20:55:51.812Z,23.60
2019-01-21T20:58:23.691Z,33.25
2019-01-21T21:00:55.558Z,26.15
2019-01-21T21:03:27.234Z,29.23
2019-01-21T21:06:04.091Z,26.95
2019-01-21T21:08:34.440Z,27.73
2019-01-21T21:11:04.607Z,20.68
2019-01-21T21:13:42.467Z,19.27
2019-01-21T21:16:12.274Z,17.77
2019-01-21T21:18:44.338Z,17.57
2019-01-21T21:21:15.367Z,27.80
2019-01-21T21:23:45.495Z,26.62
2019-01-21T21:26:15.339Z,19.42
2019-01-21T21:28:45.990Z,25.50
2019-01-21T21:31:15.682Z,27.50
2019-01-21T21:33:45.419Z,22.87
2019-01-21T21:36:15.403Z,27.00
2019-01-21T21:38:45.339Z,27.73
2019-01-21T21:41:18.347Z,28.17
2019-01-21T21:43:49.407Z,37.53
2019-01-21T21:46:19.507Z,28.02
2019-01-21T21:48:51.335Z,27.32
2019-01-21T21:51:24.258Z,18.55
2019-01-21T21:53:54.878Z,40.95
2019-01-21T21:56:24.982Z,31.10
2019-01-21T21:58:56.051Z,30.88
2019-01-21T22:01:26.190Z,30.35
2019-01-21T22:03:57.239Z,27.07
2019-01-21T22:06:27.075Z,25.68
2019-01-21T22:08:56.798Z,30.55
2019-01-21T22:11:26.507Z,29.00
2019-01-21T22:13:57.116Z,26.15
2019-01-21T22:16:29.119Z,23.15
2019-01-21T22:18:59.214Z,31.60
2019-01-21T22:21:30.327Z,24.75
2019-01-21T22:24:00.272Z,29.80
2019-01-21T22:26:32.118Z,31.37
2019-01-21T22:29:04.538Z,42.43
2019-01-21T22:31:34.702Z,60.78
2019-01-21T22:34:04.544Z,50.40
2019-01-21T22:36:34.500Z,54.53
2019-01-21T22:39:06.808Z,36.77
2019-01-21T22:41:36.622Z,31.95
2019-01-21T22:44:06.323Z,33.33
2019-01-21T22:46:36.324Z,28.25
2019-01-21T22:49:07.641Z,41.00
2019-01-21T22:51:37.743Z,29.60
2019-01-21T22:54:08.563Z,25.00
2019-01-21T22:56:38.524Z,28.23
2019-01-21T22:59:09.558Z,38.60
2019-01-21T23:01:39.422Z,36.88
2019-01-21T23:04:10.034Z,33.58
2019-01-21T23:06:41.360Z,32.93
2019-01-21T23:09:11.791Z,34.48
2019-01-21T23:11:42.567Z,31.60
2019-01-21T23:14:12.523Z,27.20
2019-01-21T23:16:42.632Z,21.15
2019-01-21T23:19:15.496Z,24.60
2019-01-21T23:21:46.193Z,31.10
2019-01-21T23:24:18.405Z,27.25
2019-01-21T23:26:48.275Z,27.35
2019-01-21T23:29:18.255Z,28.45
2019-01-21T23:31:49.023Z,21.95
2019-01-21T23:34:18.989Z,28.62
2019-01-21T23:36:49.875Z,16.17
2019-01-21T23:39:20.831Z,27.45
2019-01-21T23:41:50.663Z,25.08
2019-01-21T23:44:21.544Z,26.45
2019-01-21T23:46:51.379Z,26.17
2019-01-21T23:49:27.281Z,30.00
2019-01-21T23:52:03.451Z,23.20
2019-01-21T23:54:34.242Z,25.65
2019-01-21T23:57:04.229Z,18.85
2019-01-21T23:59:35.335Z,26.00
